createdAt,value
2023-12-12T00:01:24.884Z,7.28
2023-12-12T00:03:58.153Z,8.18
2023-12-12T00:06:31.560Z,8.82
2023-12-12T00:09:04.642Z,10.73
2023-12-12T00:11:38.185Z,11.18
2023-12-12T00:14:12.350Z,9.25
2023-12-12T00:16:45.096Z,9.38
2023-12-12T00:19:18.024Z,9.98
2023-12-12T00:21:51.016Z,9.00
2023-12-12T00:24:23.697Z,9.68
2023-12-12T00:26:57.724Z,9.00
2023-12-12T00:29:32.736Z,10.40
2023-12-12T00:32:06.016Z,11.20
2023-12-12T00:34:39.227Z,11.48
2023-12-12T00:37:12.313Z,10.15
2023-12-12T00:39:45.352Z,10.65
2023-12-12T00:42:18.465Z,8.85
2023-12-12T00:44:52.790Z,10.57
2023-12-12T00:47:27.002Z,9.00
2023-12-12T00:50:00.082Z,9.98
2023-12-12T00:52:33.044Z,10.15
2023-12-12T00:55:06.821Z,9.25
2023-12-12T00:57:39.993Z,10.40
2023-12-12T01:00:15.591Z,11.02
2023-12-12T01:02:49.822Z,12.13
2023-12-12T01:05:23.171Z,11.68
2023-12-12T01:07:57.162Z,11.60
2023-12-12T01:10:30.217Z,11.35
2023-12-12T01:13:05.668Z,11.02
2023-12-12T01:15:42.788Z,11.40
2023-12-12T01:18:16.208Z,11.80
2023-12-12T01:20:56.645Z,12.93
2023-12-12T01:23:30.001Z,12.10
2023-12-12T01:26:03.492Z,12.05
2023-12-12T01:28:36.280Z,12.10
2023-12-12T01:31:13.099Z,11.25
2023-12-12T01:33:46.956Z,10.63
2023-12-12T01:36:20.299Z,11.30
2023-12-12T01:38:53.516Z,11.10
2023-12-12T01:41:26.497Z,10.45
2023-12-12T01:43:59.713Z,10.88
2023-12-12T01:46:35.881Z,10.73
2023-12-12T01:49:09.986Z,9.77
2023-12-12T01:51:42.850Z,9.23
2023-12-12T01:54:17.937Z,9.80
2023-12-12T01:56:53.978Z,8.98
2023-12-12T01:59:28.127Z,9.13
2023-12-12T02:02:02.964Z,9.32
2023-12-12T02:04:36.424Z,9.88
2023-12-12T02:07:10.015Z,10.20
2023-12-12T02:09:43.524Z,9.90
2023-12-12T02:12:16.594Z,10.38
2023-12-12T02:14:50.670Z,10.27
2023-12-12T02:17:25.179Z,10.20
2023-12-12T02:20:01.838Z,10.63
2023-12-12T02:22:36.655Z,11.05
2023-12-12T02:25:10.165Z,11.57
2023-12-12T02:27:43.046Z,9.77
2023-12-12T02:30:17.671Z,10.45
2023-12-12T02:32:50.591Z,12.48
2023-12-12T02:35:23.504Z,11.10
2023-12-12T02:37:59.931Z,10.95
2023-12-12T02:40:33.184Z,11.02
2023-12-12T02:43:06.588Z,11.07
2023-12-12T02:45:39.376Z,11.57
2023-12-12T02:48:13.820Z,12.57
2023-12-12T02:50:46.909Z,11.10
2023-12-12T02:53:22.433Z,11.88
2023-12-12T02:55:57.383Z,11.35
2023-12-12T02:58:30.334Z,12.48
2023-12-12T03:01:05.534Z,12.48
2023-12-12T03:03:40.719Z,11.68
2023-12-12T03:06:13.657Z,12.98
2023-12-12T03:08:47.750Z,12.50
2023-12-12T03:11:20.801Z,11.63
2023-12-12T03:13:54.087Z,12.15
2023-12-12T03:16:27.142Z,13.40
2023-12-12T03:19:00.271Z,13.63
2023-12-12T03:21:34.409Z,12.82
2023-12-12T03:24:08.866Z,12.80
2023-12-12T03:26:41.696Z,13.02
2023-12-12T03:29:15.997Z,13.55
2023-12-12T03:31:49.145Z,13.25
2023-12-12T03:34:24.446Z,13.23
2023-12-12T03:37:03.474Z,14.10
2023-12-12T03:42:11.664Z,12.35
2023-12-12T03:44:44.884Z,12.88
2023-12-12T03:47:18.032Z,13.10
2023-12-12T03:49:51.327Z,11.98
2023-12-12T03:52:24.644Z,13.05
2023-12-12T03:54:58.894Z,13.00
2023-12-12T03:57:32.033Z,13.85
2023-12-12T04:00:10.059Z,12.77
2023-12-12T04:02:43.101Z,12.18
2023-12-12T04:05:16.333Z,13.63
2023-12-12T04:07:49.240Z,13.35
2023-12-12T04:10:23.560Z,13.43
2023-12-12T04:12:58.622Z,14.60
2023-12-12T04:15:31.457Z,13.90
2023-12-12T04:18:05.585Z,15.07
2023-12-12T04:20:38.650Z,13.93
2023-12-12T04:23:12.450Z,13.40
2023-12-12T04:25:47.104Z,14.40
2023-12-12T04:28:20.345Z,16.98
2023-12-12T04:30:53.198Z,12.27
2023-12-12T04:33:26.236Z,13.65
2023-12-12T04:35:59.097Z,12.98
2023-12-12T04:38:33.809Z,13.35
2023-12-12T04:41:10.163Z,13.60
2023-12-12T04:43:43.363Z,12.90
2023-12-12T04:46:22.791Z,12.40
2023-12-12T04:48:55.693Z,12.93
2023-12-12T04:51:28.905Z,13.40
2023-12-12T04:54:01.744Z,13.18
2023-12-12T04:56:39.769Z,13.40
2023-12-12T04:59:12.737Z,12.10
2023-12-12T05:01:45.811Z,13.60
2023-12-12T05:04:18.763Z,12.95
2023-12-12T05:06:52.259Z,10.80
2023-12-12T05:09:25.625Z,13.02
2023-12-12T05:11:59.822Z,11.82
2023-12-12T05:14:32.615Z,12.20
2023-12-12T05:17:10.781Z,12.18
2023-12-12T05:19:44.762Z,9.63
2023-12-12T05:22:17.894Z,10.70
2023-12-12T05:24:50.762Z,11.48
2023-12-12T05:27:24.856Z,11.20
2023-12-12T05:29:57.657Z,11.75
2023-12-12T05:32:31.887Z,11.43
2023-12-12T05:35:05.651Z,11.60
2023-12-12T05:37:38.559Z,12.32
2023-12-12T05:40:15.547Z,12.43
2023-12-12T05:42:49.946Z,10.95
2023-12-12T05:45:22.979Z,12.25
2023-12-12T05:47:55.935Z,10.73
2023-12-12T05:50:28.757Z,11.07
2023-12-12T05:53:01.625Z,10.98
2023-12-12T05:55:34.926Z,11.30
2023-12-12T05:58:09.341Z,10.60
2023-12-12T06:00:42.149Z,11.65
2023-12-12T06:03:14.972Z,11.70
2023-12-12T06:05:47.794Z,11.38
2023-12-12T06:08:20.643Z,11.55
2023-12-12T06:10:53.543Z,11.02
2023-12-12T06:13:27.937Z,11.80
2023-12-12T06:16:00.728Z,11.82
2023-12-12T06:18:33.585Z,11.93
2023-12-12T06:21:06.785Z,12.23
2023-12-12T06:23:40.805Z,11.48
2023-12-12T06:26:14.969Z,12.30
2023-12-12T06:28:51.381Z,12.52
2023-12-12T06:31:24.876Z,11.57
2023-12-12T06:33:57.929Z,12.88
2023-12-12T06:36:30.846Z,11.90
2023-12-12T06:39:04.554Z,11.77
2023-12-12T06:41:37.954Z,12.95
2023-12-12T06:44:12.287Z,12.88
2023-12-12T06:46:45.066Z,12.60
2023-12-12T06:49:18.174Z,13.68
2023-12-12T06:51:51.218Z,13.65
2023-12-12T06:54:24.059Z,11.48
2023-12-12T06:56:56.860Z,12.70
2023-12-12T06:59:31.154Z,13.77
2023-12-12T07:02:09.917Z,12.45
2023-12-12T07:07:15.909Z,11.98
2023-12-12T07:09:58.994Z,14.75
2023-12-12T07:12:33.092Z,13.27
2023-12-12T07:15:08.433Z,14.30
2023-12-12T07:17:41.837Z,13.50
2023-12-12T07:20:14.938Z,14.70
2023-12-12T07:22:47.862Z,13.15
2023-12-12T07:25:21.776Z,15.07
2023-12-12T07:27:54.705Z,15.77
2023-12-12T07:30:29.443Z,14.75
2023-12-12T07:33:02.310Z,15.32
2023-12-12T07:35:35.366Z,14.75
2023-12-12T07:38:08.299Z,13.35
2023-12-12T07:40:41.292Z,14.57
2023-12-12T07:43:14.179Z,14.93
2023-12-12T07:45:48.545Z,13.50
2023-12-12T07:48:21.459Z,14.02
2023-12-12T07:50:54.511Z,14.23
2023-12-12T07:53:27.507Z,15.00
2023-12-12T07:56:00.638Z,13.45
2023-12-12T07:58:33.563Z,13.48
2023-12-12T08:01:08.335Z,15.70
2023-12-12T08:03:41.328Z,13.85
2023-12-12T08:06:16.021Z,12.23
2023-12-12T08:08:49.908Z,13.43
2023-12-12T08:11:26.076Z,13.20
2023-12-12T08:13:59.242Z,12.35
2023-12-12T08:16:33.595Z,12.88
2023-12-12T08:19:06.721Z,13.50
2023-12-12T08:21:39.608Z,13.48
2023-12-12T08:24:13.536Z,15.43
2023-12-12T08:26:48.244Z,15.55
2023-12-12T08:29:21.262Z,14.05
2023-12-12T08:31:55.530Z,14.00
2023-12-12T08:34:28.621Z,13.63
2023-12-12T08:37:02.252Z,14.18
2023-12-12T08:39:35.149Z,13.98
2023-12-12T08:42:08.077Z,14.02
2023-12-12T08:44:43.179Z,14.40
2023-12-12T08:47:17.917Z,14.75
2023-12-12T08:49:50.875Z,12.82
2023-12-12T08:52:23.750Z,14.18
2023-12-12T08:54:57.924Z,13.68
2023-12-12T08:57:31.078Z,12.73
2023-12-12T09:00:05.006Z,13.73
2023-12-12T09:02:39.288Z,14.65
2023-12-12T09:05:12.078Z,12.85
2023-12-12T09:07:45.263Z,14.15
2023-12-12T09:10:18.069Z,14.02
2023-12-12T09:12:50.802Z,18.33
2023-12-12T09:15:25.099Z,14.77
2023-12-12T09:18:11.228Z,14.15
2023-12-12T09:20:52.011Z,14.43
2023-12-12T09:23:29.020Z,13.88
2023-12-12T09:26:01.948Z,15.20
2023-12-12T09:28:34.778Z,14.55
2023-12-12T09:31:07.750Z,15.48
2023-12-12T09:33:44.415Z,15.48
2023-12-12T09:36:17.428Z,14.52
2023-12-12T09:38:50.291Z,13.30
2023-12-12T09:41:24.438Z,14.63
2023-12-12T09:43:59.125Z,15.32
2023-12-12T09:46:32.941Z,16.13
2023-12-12T09:49:10.272Z,16.42
2023-12-12T09:51:44.046Z,14.27
2023-12-12T09:54:18.044Z,15.18
2023-12-12T09:56:51.918Z,13.98
2023-12-12T09:59:24.702Z,14.50
2023-12-12T10:02:06.601Z,14.63
2023-12-12T10:04:48.347Z,16.25
2023-12-12T10:07:22.074Z,15.77
2023-12-12T10:09:55.526Z,14.07
2023-12-12T10:12:31.448Z,14.07
2023-12-12T10:15:05.001Z,15.82
2023-12-12T10:17:40.448Z,14.95
2023-12-12T10:20:15.303Z,15.40
2023-12-12T10:22:48.377Z,14.43
2023-12-12T10:25:24.167Z,13.95
2023-12-12T10:27:57.093Z,15.82
2023-12-12T10:30:30.345Z,14.90
2023-12-12T10:33:04.610Z,14.82
2023-12-12T10:35:45.791Z,14.68
2023-12-12T10:38:26.498Z,13.25
2023-12-12T10:41:11.919Z,14.18
2023-12-12T10:43:46.206Z,14.50
2023-12-12T10:46:21.687Z,15.00
2023-12-12T10:48:56.332Z,14.30
2023-12-12T10:51:31.187Z,14.30
2023-12-12T10:54:06.314Z,14.73
2023-12-12T10:56:39.603Z,15.07
2023-12-12T10:59:56.324Z,14.85
2023-12-12T11:02:11.801Z,13.93
2023-12-12T11:04:46.455Z,14.88
2023-12-12T11:07:21.041Z,14.57
2023-12-12T11:09:54.896Z,14.38
2023-12-12T11:12:30.173Z,15.30
2023-12-12T11:15:06.038Z,13.52
2023-12-12T11:17:39.207Z,14.23
2023-12-12T11:20:16.764Z,12.73
2023-12-12T11:22:54.491Z,13.45
2023-12-12T11:25:32.238Z,14.95
2023-12-12T11:28:07.487Z,13.48
2023-12-12T11:30:41.252Z,14.07
2023-12-12T11:33:14.296Z,14.23
2023-12-12T11:35:48.234Z,15.30
2023-12-12T11:38:34.182Z,15.35
2023-12-12T11:41:11.324Z,14.02
2023-12-12T11:43:46.289Z,15.00
2023-12-12T11:46:20.923Z,15.25
2023-12-12T11:48:55.099Z,13.02
2023-12-12T11:51:47.929Z,14.35
2023-12-12T11:54:25.805Z,14.02
2023-12-12T11:56:59.969Z,13.48
2023-12-12T11:59:34.509Z,12.45
2023-12-12T12:02:07.578Z,11.20
2023-12-12T12:04:40.638Z,10.50
2023-12-12T12:07:13.981Z,10.07
2023-12-12T12:09:51.103Z,10.50
2023-12-12T12:12:25.703Z,8.40
2023-12-12T12:15:05.090Z,9.48
2023-12-12T12:17:38.735Z,8.88
2023-12-12T12:20:11.940Z,9.25
2023-12-12T12:22:45.100Z,9.30
2023-12-12T12:25:28.612Z,9.02
2023-12-12T12:28:03.077Z,9.10
2023-12-12T12:30:46.330Z,10.18
2023-12-12T12:33:19.247Z,9.40
2023-12-12T12:35:53.241Z,8.65
2023-12-12T12:38:26.995Z,8.30
2023-12-12T12:41:01.718Z,8.80
2023-12-12T12:43:34.791Z,9.30
2023-12-12T12:46:09.597Z,8.70
2023-12-12T12:48:42.718Z,8.48
2023-12-12T12:51:15.603Z,8.93
2023-12-12T12:53:48.783Z,8.52
2023-12-12T12:56:24.027Z,9.23
2023-12-12T12:59:10.750Z,9.90
2023-12-12T13:01:43.870Z,9.18
2023-12-12T13:04:18.231Z,9.02
2023-12-12T13:06:51.238Z,9.70
2023-12-12T13:09:25.117Z,9.05
2023-12-12T13:11:59.969Z,8.77
2023-12-12T13:14:33.057Z,8.75
2023-12-12T13:17:07.734Z,7.78
2023-12-12T13:19:40.958Z,9.48
2023-12-12T13:22:14.127Z,9.05
2023-12-12T13:24:47.282Z,7.97
2023-12-12T13:27:21.880Z,9.20
2023-12-12T13:29:54.598Z,8.75
2023-12-12T13:32:27.911Z,8.95
2023-12-12T13:35:02.154Z,9.07
2023-12-12T13:37:36.140Z,10.05
2023-12-12T13:40:10.081Z,8.27
2023-12-12T13:42:44.456Z,9.32
2023-12-12T13:45:18.333Z,9.65
2023-12-12T13:47:51.682Z,10.38
2023-12-12T13:50:24.559Z,9.88
2023-12-12T13:52:57.607Z,10.07
2023-12-12T13:55:30.856Z,9.10
2023-12-12T13:58:11.547Z,11.02
2023-12-12T14:00:45.758Z,9.30
2023-12-12T14:03:20.192Z,9.25
2023-12-12T14:05:53.166Z,8.65
2023-12-12T14:08:27.845Z,9.40
2023-12-12T14:11:00.959Z,10.52
2023-12-12T14:13:35.265Z,9.48
2023-12-12T14:16:08.971Z,9.40
2023-12-12T14:18:42.179Z,8.70
2023-12-12T14:21:15.338Z,8.35
2023-12-12T14:23:48.217Z,9.45
2023-12-12T14:26:23.369Z,8.60
2023-12-12T14:28:57.766Z,8.10
2023-12-12T14:31:30.548Z,8.50
2023-12-12T14:34:05.174Z,8.55
2023-12-12T14:36:38.480Z,8.88
2023-12-12T14:39:14.086Z,8.10
2023-12-12T14:41:48.634Z,7.22
2023-12-12T14:44:22.987Z,8.25
2023-12-12T14:46:55.846Z,8.63
2023-12-12T14:49:28.711Z,7.10
2023-12-12T14:52:01.574Z,7.72
2023-12-12T14:54:34.379Z,7.95
2023-12-12T14:57:13.403Z,7.97
2023-12-12T14:59:55.075Z,7.97
2023-12-12T15:02:28.792Z,8.40
2023-12-12T15:05:01.705Z,8.57
2023-12-12T15:07:34.519Z,8.27
2023-12-12T15:10:08.846Z,7.20
2023-12-12T15:12:41.930Z,7.32
2023-12-12T15:15:17.171Z,7.57
2023-12-12T15:17:50.580Z,8.02
2023-12-12T15:20:23.684Z,8.07
2023-12-12T15:22:56.485Z,7.78
2023-12-12T15:25:36.172Z,7.80
2023-12-12T15:28:25.002Z,8.00
2023-12-12T15:31:05.569Z,8.63
2023-12-12T15:33:42.092Z,6.82
2023-12-12T15:36:15.008Z,8.85
2023-12-12T15:38:48.897Z,8.15
2023-12-12T15:41:21.971Z,8.18
2023-12-12T15:43:56.620Z,8.73
2023-12-12T15:46:32.244Z,8.82
2023-12-12T15:49:05.628Z,8.70
2023-12-12T15:51:39.528Z,8.20
2023-12-12T15:54:13.815Z,8.93
2023-12-12T15:56:46.819Z,7.75
2023-12-12T15:59:20.912Z,8.40
2023-12-12T16:01:55.449Z,8.77
2023-12-12T16:04:29.845Z,7.93
2023-12-12T16:07:04.486Z,9.48
2023-12-12T16:09:37.500Z,10.20
2023-12-12T16:12:10.858Z,7.95
2023-12-12T16:14:44.222Z,7.85
2023-12-12T16:17:19.655Z,7.40
2023-12-12T16:19:52.894Z,7.53
2023-12-12T16:22:25.780Z,7.53
2023-12-12T16:24:58.797Z,7.85
2023-12-12T16:27:31.882Z,8.23
2023-12-12T16:30:07.506Z,8.18
2023-12-12T16:32:42.133Z,7.90
2023-12-12T16:35:15.045Z,7.68
2023-12-12T16:37:47.864Z,8.20
2023-12-12T16:40:20.907Z,7.82
2023-12-12T16:42:53.783Z,7.95
2023-12-12T16:45:26.592Z,8.13
2023-12-12T16:48:02.287Z,8.13
2023-12-12T16:50:35.547Z,8.15
2023-12-12T16:53:14.852Z,8.13
2023-12-12T16:55:48.096Z,7.63
2023-12-12T16:58:22.004Z,8.32
2023-12-12T17:00:54.852Z,7.35
2023-12-12T17:03:29.138Z,7.68
2023-12-12T17:06:04.512Z,8.50
2023-12-12T17:08:37.985Z,9.20
2023-12-12T17:11:10.961Z,8.93
2023-12-12T17:13:43.866Z,6.95
2023-12-12T17:16:16.987Z,8.40
2023-12-12T17:18:51.459Z,7.55
2023-12-12T17:21:24.485Z,8.05
2023-12-12T17:23:57.473Z,7.93
2023-12-12T17:26:30.399Z,7.80
2023-12-12T17:29:03.195Z,8.23
2023-12-12T17:31:35.989Z,8.10
2023-12-12T17:34:10.200Z,8.82
2023-12-12T17:36:43.542Z,7.63
2023-12-12T17:39:16.770Z,8.40
2023-12-12T17:41:49.546Z,9.57
2023-12-12T17:44:22.295Z,8.75
2023-12-12T17:46:55.548Z,9.68
2023-12-12T17:49:29.820Z,8.55
2023-12-12T17:52:02.789Z,9.55
2023-12-12T17:54:35.490Z,9.57
2023-12-12T17:57:08.561Z,8.68
2023-12-12T17:59:41.321Z,9.32
2023-12-12T18:02:14.115Z,9.38
2023-12-12T18:04:48.510Z,10.48
2023-12-12T18:07:21.765Z,10.77
2023-12-12T18:09:55.445Z,9.90
2023-12-12T18:12:28.238Z,10.20
2023-12-12T18:15:01.286Z,9.57
2023-12-12T18:17:34.835Z,9.43
2023-12-12T18:20:10.971Z,10.93
2023-12-12T18:22:43.981Z,10.23
2023-12-12T18:25:16.832Z,10.40
2023-12-12T18:27:49.740Z,10.07
2023-12-12T18:30:28.157Z,10.07
2023-12-12T18:33:01.452Z,9.93
2023-12-12T18:35:35.654Z,10.93
2023-12-12T18:38:09.317Z,9.38
2023-12-12T18:40:42.363Z,9.80
2023-12-12T18:43:15.194Z,9.52
2023-12-12T18:45:48.567Z,9.00
2023-12-12T18:48:21.639Z,9.98
2023-12-12T18:50:55.935Z,10.18
2023-12-12T18:53:30.790Z,9.70
2023-12-12T18:56:07.334Z,9.07
2023-12-12T18:58:40.572Z,9.52
2023-12-12T19:01:17.207Z,9.65
2023-12-12T19:03:50.346Z,9.02
2023-12-12T19:06:24.973Z,9.40
2023-12-12T19:08:57.780Z,9.38
2023-12-12T19:11:30.640Z,8.85
2023-12-12T19:14:04.476Z,9.80
2023-12-12T19:16:39.420Z,9.95
2023-12-12T19:19:12.488Z,9.27
2023-12-12T19:21:46.779Z,9.05
2023-12-12T19:24:19.716Z,9.25
2023-12-12T19:26:53.288Z,10.20
2023-12-12T19:29:28.813Z,9.20
2023-12-12T19:32:05.219Z,9.95
2023-12-12T19:34:39.584Z,10.98
2023-12-12T19:37:14.516Z,9.35
2023-12-12T19:39:48.325Z,9.43
2023-12-12T19:42:21.612Z,10.07
2023-12-12T19:44:56.063Z,9.15
2023-12-12T19:47:30.043Z,9.63
2023-12-12T19:50:05.885Z,9.18
2023-12-12T19:52:41.230Z,9.45
2023-12-12T19:55:14.831Z,8.05
2023-12-12T19:57:48.471Z,8.95
2023-12-12T20:00:21.502Z,8.20
2023-12-12T20:02:54.641Z,9.48
2023-12-12T20:05:27.788Z,9.60
2023-12-12T20:08:02.219Z,8.60
2023-12-12T20:10:36.741Z,9.63
2023-12-12T20:13:11.349Z,8.80
2023-12-12T20:15:46.770Z,8.45
2023-12-12T20:18:22.524Z,8.70
2023-12-12T20:20:56.897Z,8.32
2023-12-12T20:23:31.167Z,8.88
2023-12-12T20:26:05.963Z,8.45
2023-12-12T20:28:39.305Z,8.40
2023-12-12T20:31:12.908Z,8.80
2023-12-12T20:33:46.432Z,9.10
2023-12-12T20:36:19.508Z,8.88
2023-12-12T20:38:53.706Z,7.75
2023-12-12T20:41:30.352Z,8.73
2023-12-12T20:44:04.373Z,7.72
2023-12-12T20:46:39.982Z,7.55
2023-12-12T20:49:14.129Z,7.93
2023-12-12T20:51:50.027Z,8.63
2023-12-12T20:54:28.013Z,7.47
2023-12-12T20:57:03.219Z,8.03
2023-12-12T20:59:36.155Z,8.45
2023-12-12T21:02:09.312Z,9.10
2023-12-12T21:04:43.403Z,8.25
2023-12-12T21:07:16.946Z,8.10
2023-12-12T21:09:51.494Z,8.60
2023-12-12T21:12:24.170Z,8.07
2023-12-12T21:14:57.025Z,9.02
2023-12-12T21:17:30.305Z,8.15
2023-12-12T21:20:05.672Z,7.85
2023-12-12T21:22:43.269Z,8.07
2023-12-12T21:25:18.146Z,8.10
2023-12-12T21:27:51.266Z,9.60
2023-12-12T21:30:26.021Z,8.27
2023-12-12T21:32:59.611Z,8.02
2023-12-12T21:35:34.794Z,9.70
2023-12-12T21:38:08.350Z,9.40
2023-12-12T21:40:42.514Z,8.90
2023-12-12T21:43:16.151Z,8.68
2023-12-12T21:45:49.214Z,9.55
2023-12-12T21:48:22.252Z,8.40
2023-12-12T21:50:55.063Z,8.38
2023-12-12T21:53:29.828Z,9.50
2023-12-12T21:56:05.130Z,8.48
2023-12-12T21:58:39.395Z,8.73
2023-12-12T22:01:13.026Z,8.10
2023-12-12T22:03:46.344Z,7.90
2023-12-12T22:06:19.637Z,7.88
2023-12-12T22:08:52.602Z,9.88
2023-12-12T22:11:26.683Z,8.55
2023-12-12T22:14:00.849Z,8.32
2023-12-12T22:16:34.249Z,7.88
2023-12-12T22:19:07.182Z,9.13
2023-12-12T22:21:40.727Z,9.10
2023-12-12T22:24:13.486Z,9.18
2023-12-12T22:26:48.109Z,9.00
2023-12-12T22:29:20.945Z,9.20
2023-12-12T22:31:56.355Z,9.20
2023-12-12T22:34:29.434Z,9.88
2023-12-12T22:37:02.659Z,9.40
2023-12-12T22:39:36.080Z,9.15
2023-12-12T22:42:11.083Z,8.93
2023-12-12T22:44:44.248Z,9.00
2023-12-12T22:47:17.241Z,8.65
2023-12-12T22:49:50.174Z,8.45
2023-12-12T22:52:24.632Z,7.95
2023-12-12T22:54:57.533Z,8.60
2023-12-12T22:57:32.002Z,9.05
2023-12-12T23:00:25.702Z,9.50
2023-12-12T23:02:57.949Z,8.85
2023-12-12T23:05:31.088Z,9.60
2023-12-12T23:08:06.279Z,8.73
2023-12-12T23:10:39.716Z,8.15
2023-12-12T23:13:14.218Z,8.43
2023-12-12T23:15:49.089Z,8.98
2023-12-12T23:18:22.564Z,8.70
2023-12-12T23:20:56.717Z,8.63
2023-12-12T23:23:29.781Z,8.77
2023-12-12T23:26:03.388Z,9.35
2023-12-12T23:28:41.457Z,8.88
2023-12-12T23:31:14.417Z,8.55
2023-12-12T23:33:47.829Z,9.27
2023-12-12T23:36:20.976Z,8.40
2023-12-12T23:38:54.631Z,9.18
2023-12-12T23:41:27.388Z,9.13
2023-12-12T23:44:01.663Z,9.15
2023-12-12T23:46:34.435Z,8.80
2023-12-12T23:49:07.395Z,9.25
2023-12-12T23:51:40.172Z,9.27
2023-12-12T23:54:15.480Z,8.38
2023-12-12T23:56:48.555Z,9.88
2023-12-12T23:59:22.692Z,8.82
